createdAt,value
2022-11-27T00:00:35.291Z,6.50
2022-11-27T00:03:23.252Z,6.50
2022-11-27T00:06:13.446Z,6.50
2022-11-27T00:09:03.941Z,6.50
2022-11-27T00:11:52.076Z,6.40
2022-11-27T00:14:39.999Z,6.50
2022-11-27T00:17:27.917Z,6.40
2022-11-27T00:20:15.900Z,6.50
2022-11-27T00:23:03.844Z,6.40
2022-11-27T00:25:53.379Z,6.50
2022-11-27T00:28:41.397Z,6.40
2022-11-27T00:31:30.173Z,6.50
2022-11-27T00:34:18.127Z,6.40
2022-11-27T00:37:07.294Z,6.40
2022-11-27T00:39:55.134Z,6.50
2022-11-27T00:42:44.393Z,6.50
2022-11-27T00:45:32.322Z,6.50
2022-11-27T00:48:20.223Z,6.50
2022-11-27T00:51:09.555Z,6.50
2022-11-27T00:53:57.681Z,6.40
2022-11-27T00:56:45.686Z,6.50
2022-11-27T00:59:34.878Z,6.50
2022-11-27T01:02:22.947Z,6.50
2022-11-27T01:05:11.017Z,6.50
2022-11-27T01:07:58.967Z,6.50
2022-11-27T01:10:54.574Z,6.50
2022-11-27T01:13:43.266Z,6.50
2022-11-27T01:16:33.014Z,6.50
2022-11-27T01:19:20.942Z,6.60
2022-11-27T01:22:08.909Z,6.50
2022-11-27T01:24:56.824Z,6.50
2022-11-27T01:27:44.682Z,6.40
2022-11-27T01:30:32.587Z,6.50
2022-11-27T01:33:21.832Z,6.50
2022-11-27T01:36:11.203Z,6.50
2022-11-27T01:38:59.390Z,6.50
2022-11-27T01:41:48.411Z,6.50
2022-11-27T01:44:49.961Z,6.50
2022-11-27T01:47:40.895Z,6.50
2022-11-27T01:50:32.351Z,6.40
2022-11-27T01:53:20.410Z,6.40
2022-11-27T01:56:09.604Z,6.30
2022-11-27T01:58:58.347Z,6.30
2022-11-27T02:01:46.378Z,6.30
2022-11-27T02:04:34.487Z,6.30
2022-11-27T02:07:24.012Z,6.30
2022-11-27T02:10:12.625Z,6.30
2022-11-27T02:13:02.345Z,6.30
2022-11-27T02:15:54.334Z,6.30
2022-11-27T02:18:44.851Z,6.30
2022-11-27T02:21:37.441Z,6.30
2022-11-27T02:24:39.650Z,6.30
2022-11-27T02:27:47.339Z,6.30
2022-11-27T02:30:40.042Z,6.30
2022-11-27T02:33:28.064Z,6.30
2022-11-27T02:36:17.323Z,6.30
2022-11-27T02:39:08.665Z,6.30
2022-11-27T02:41:58.917Z,6.30
2022-11-27T02:44:48.689Z,6.30
2022-11-27T02:47:40.032Z,6.30
2022-11-27T02:50:29.277Z,6.20
2022-11-27T02:53:19.936Z,6.30
2022-11-27T02:56:09.962Z,6.20
2022-11-27T02:59:00.149Z,6.20
2022-11-27T03:01:51.022Z,6.30
2022-11-27T03:04:42.890Z,6.30
2022-11-27T03:07:33.997Z,6.30
2022-11-27T03:10:23.693Z,6.20
2022-11-27T03:13:11.908Z,6.20
2022-11-27T03:16:04.433Z,6.30
2022-11-27T03:18:56.969Z,6.30
2022-11-27T03:21:47.729Z,6.20
2022-11-27T03:24:36.695Z,6.20
2022-11-27T03:27:27.848Z,6.20
2022-11-27T03:30:15.950Z,6.30
2022-11-27T03:33:03.939Z,6.30
2022-11-27T03:35:53.074Z,6.30
2022-11-27T03:38:42.969Z,6.20
2022-11-27T03:41:35.496Z,6.20
2022-11-27T03:44:27.218Z,6.20
2022-11-27T03:47:21.771Z,6.20
2022-11-27T03:50:19.852Z,6.20
2022-11-27T03:53:10.557Z,6.10
2022-11-27T03:56:06.827Z,6.10
2022-11-27T03:59:00.385Z,6.10
2022-11-27T04:01:48.690Z,6.10
2022-11-27T04:04:36.617Z,6.20
2022-11-27T04:07:24.601Z,6.20
2022-11-27T04:10:12.970Z,6.20
2022-11-27T04:13:02.243Z,6.20
2022-11-27T04:15:50.189Z,6.20
2022-11-27T04:18:38.095Z,6.20
2022-11-27T04:21:26.036Z,6.20
2022-11-27T04:24:14.009Z,6.10
2022-11-27T04:27:01.895Z,6.10
2022-11-27T04:29:51.111Z,6.10
2022-11-27T04:32:38.983Z,6.10
2022-11-27T04:35:26.871Z,6.10
2022-11-27T04:38:14.735Z,6.10
2022-11-27T04:41:02.834Z,6.00
2022-11-27T04:43:50.842Z,6.00
2022-11-27T04:46:40.264Z,6.00
2022-11-27T04:49:28.155Z,6.00
2022-11-27T04:52:16.071Z,6.10
2022-11-27T04:55:04.077Z,6.10
2022-11-27T04:57:51.953Z,6.00
2022-11-27T05:00:39.833Z,6.00
2022-11-27T05:03:29.108Z,6.00
2022-11-27T05:06:17.003Z,6.00
2022-11-27T05:09:05.063Z,6.00
2022-11-27T05:11:52.934Z,6.00
2022-11-27T05:14:41.075Z,6.00
2022-11-27T05:17:29.191Z,6.00
2022-11-27T05:20:18.562Z,6.00
2022-11-27T05:23:06.436Z,6.00
2022-11-27T05:25:54.507Z,6.00
2022-11-27T05:28:42.481Z,6.00
2022-11-27T05:31:30.552Z,6.00
2022-11-27T05:34:18.535Z,5.90
2022-11-27T05:37:07.808Z,5.80
2022-11-27T05:39:55.652Z,5.80
2022-11-27T05:42:43.471Z,5.80
2022-11-27T05:45:31.335Z,5.80
2022-11-27T05:48:19.197Z,5.80
2022-11-27T05:51:07.288Z,5.80
2022-11-27T05:53:56.571Z,5.80
2022-11-27T05:56:44.443Z,5.80
2022-11-27T05:59:32.304Z,5.80
2022-11-27T06:02:23.762Z,5.70
2022-11-27T06:05:14.461Z,5.80
2022-11-27T06:08:02.309Z,5.80
2022-11-27T06:10:51.518Z,5.80
2022-11-27T06:13:39.749Z,5.70
2022-11-27T06:16:27.741Z,5.80
2022-11-27T06:19:15.649Z,5.80
2022-11-27T06:22:03.532Z,5.80
2022-11-27T06:24:51.644Z,5.90
2022-11-27T06:27:40.872Z,5.80
2022-11-27T06:30:28.724Z,5.70
2022-11-27T06:33:16.671Z,5.70
2022-11-27T06:36:05.309Z,5.70
2022-11-27T06:38:53.171Z,5.70
2022-11-27T06:41:40.974Z,5.70
2022-11-27T06:44:30.764Z,5.80
2022-11-27T06:47:18.815Z,5.80
2022-11-27T06:50:07.540Z,5.80
2022-11-27T06:52:55.461Z,5.80
2022-11-27T06:55:43.456Z,5.80
2022-11-27T06:58:31.590Z,5.80
2022-11-27T07:01:21.097Z,5.80
2022-11-27T07:04:09.830Z,5.90
2022-11-27T07:06:58.764Z,5.90
2022-11-27T07:09:46.642Z,5.90
2022-11-27T07:12:34.466Z,5.90
2022-11-27T07:15:22.319Z,5.90
2022-11-27T07:18:11.574Z,5.90
2022-11-27T07:20:59.459Z,5.90
2022-11-27T07:23:47.589Z,6.00
2022-11-27T07:26:35.494Z,6.00
2022-11-27T07:29:23.627Z,6.00
2022-11-27T07:32:11.498Z,6.00
2022-11-27T07:35:00.926Z,6.00
2022-11-27T07:37:48.861Z,6.00
2022-11-27T07:40:36.736Z,6.00
2022-11-27T07:43:24.642Z,6.10
2022-11-27T07:46:13.677Z,6.10
2022-11-27T07:49:01.882Z,6.10
2022-11-27T07:51:51.154Z,6.10
2022-11-27T07:54:39.709Z,6.20
2022-11-27T07:57:27.984Z,6.10
2022-11-27T08:00:16.319Z,6.20
2022-11-27T08:03:04.460Z,6.20
2022-11-27T08:05:52.476Z,6.20
2022-11-27T08:08:41.924Z,6.20
2022-11-27T08:11:32.768Z,6.20
2022-11-27T08:14:20.695Z,6.30
2022-11-27T08:17:08.641Z,6.30
2022-11-27T08:19:56.602Z,6.30
2022-11-27T08:22:44.456Z,6.30
2022-11-27T08:25:33.773Z,6.30
2022-11-27T08:28:22.633Z,6.30
2022-11-27T08:31:11.477Z,6.40
2022-11-27T08:33:59.384Z,6.40
2022-11-27T08:36:47.388Z,6.30
2022-11-27T08:39:35.411Z,6.30
2022-11-27T08:42:24.751Z,6.30
2022-11-27T08:45:12.706Z,6.40
2022-11-27T08:48:00.577Z,6.50
2022-11-27T08:50:48.842Z,6.60
2022-11-27T08:53:37.734Z,6.60
2022-11-27T08:56:26.569Z,6.70
2022-11-27T08:59:16.020Z,6.70
2022-11-27T09:02:03.941Z,6.70
2022-11-27T09:04:51.969Z,6.70
2022-11-27T09:07:40.971Z,6.70
2022-11-27T09:10:28.972Z,6.70
2022-11-27T09:13:16.947Z,6.80
2022-11-27T09:16:06.813Z,6.80
2022-11-27T09:18:55.100Z,6.80
2022-11-27T09:21:43.011Z,6.80
2022-11-27T09:24:30.876Z,6.90
2022-11-27T09:27:18.790Z,6.80
2022-11-27T09:30:08.070Z,6.90
2022-11-27T09:32:57.422Z,6.90
2022-11-27T09:35:45.519Z,6.90
2022-11-27T09:38:33.561Z,6.80
2022-11-27T09:41:27.601Z,6.90
2022-11-27T09:44:19.602Z,7.00
2022-11-27T09:47:11.475Z,7.00
2022-11-27T09:50:02.695Z,7.00
2022-11-27T09:52:52.572Z,7.10
2022-11-27T09:55:43.215Z,7.10
2022-11-27T09:58:37.084Z,7.10
2022-11-27T10:01:33.950Z,7.10
2022-11-27T10:04:26.286Z,7.10
2022-11-27T10:07:21.081Z,7.20
2022-11-27T10:10:14.753Z,7.20
2022-11-27T10:13:08.985Z,7.20
2022-11-27T10:15:58.068Z,7.30
2022-11-27T10:18:47.990Z,7.30
2022-11-27T10:21:42.675Z,7.30
2022-11-27T10:24:36.801Z,7.30
2022-11-27T10:27:26.578Z,7.40
2022-11-27T10:30:16.508Z,7.50
2022-11-27T10:33:05.190Z,7.50
2022-11-27T10:35:53.384Z,7.60
2022-11-27T10:38:42.377Z,7.60
2022-11-27T10:41:49.391Z,7.70
2022-11-27T10:44:40.933Z,7.80
2022-11-27T10:47:33.516Z,7.90
2022-11-27T10:50:22.154Z,7.90
2022-11-27T10:53:12.431Z,8.00
2022-11-27T10:56:15.680Z,8.00
2022-11-27T10:59:07.172Z,8.00
2022-11-27T11:01:55.568Z,8.00
2022-11-27T11:04:43.502Z,8.00
2022-11-27T11:07:31.460Z,8.00
2022-11-27T11:10:25.145Z,8.00
2022-11-27T11:13:15.680Z,8.00
2022-11-27T11:16:09.821Z,8.00
2022-11-27T11:19:01.489Z,8.00
2022-11-27T11:21:49.428Z,8.00
2022-11-27T11:24:40.315Z,8.00
2022-11-27T11:27:29.675Z,8.10
2022-11-27T11:30:22.075Z,8.10
2022-11-27T11:33:14.661Z,8.20
2022-11-27T11:36:08.489Z,8.20
2022-11-27T11:38:56.756Z,8.20
2022-11-27T11:41:46.999Z,8.30
2022-11-27T11:44:37.218Z,8.30
2022-11-27T11:47:26.705Z,8.40
2022-11-27T11:50:17.924Z,8.40
2022-11-27T11:53:08.997Z,8.40
2022-11-27T11:56:00.946Z,8.50
2022-11-27T11:58:55.050Z,8.50
2022-11-27T12:01:47.229Z,8.50
2022-11-27T12:04:46.639Z,8.50
2022-11-27T12:07:51.958Z,8.50
2022-11-27T12:10:48.978Z,8.50
2022-11-27T12:13:46.129Z,8.50
2022-11-27T12:16:37.789Z,8.50
2022-11-27T12:19:42.919Z,8.50
2022-11-27T12:22:49.006Z,8.60
2022-11-27T12:25:39.062Z,8.60
2022-11-27T12:28:38.034Z,8.70
2022-11-27T12:31:30.522Z,8.80
2022-11-27T12:34:21.235Z,8.80
2022-11-27T12:37:18.261Z,8.80
2022-11-27T12:40:16.476Z,8.80
2022-11-27T12:43:08.879Z,8.80
2022-11-27T12:46:00.749Z,8.80
2022-11-27T12:48:50.950Z,8.80
2022-11-27T12:51:43.483Z,8.80
2022-11-27T12:54:32.761Z,8.80
2022-11-27T12:57:25.125Z,8.90
2022-11-27T13:00:16.382Z,8.80
2022-11-27T13:03:07.345Z,8.70
2022-11-27T13:05:58.005Z,8.80
2022-11-27T13:08:52.278Z,8.80
2022-11-27T13:11:41.657Z,8.80
2022-11-27T13:14:32.083Z,8.80
2022-11-27T13:17:20.236Z,8.90
2022-11-27T13:20:15.475Z,8.90
2022-11-27T13:23:03.469Z,8.90
2022-11-27T13:25:52.721Z,8.90
2022-11-27T13:28:43.712Z,8.90
2022-11-27T13:31:37.592Z,8.90
2022-11-27T13:34:27.532Z,8.90
2022-11-27T13:37:26.620Z,8.90
2022-11-27T13:40:19.120Z,8.90
2022-11-27T13:43:08.184Z,8.90
2022-11-27T13:46:02.454Z,8.90
2022-11-27T13:48:53.485Z,8.90
2022-11-27T13:51:41.419Z,8.90
2022-11-27T13:54:29.421Z,8.80
2022-11-27T13:57:20.914Z,8.80
2022-11-27T14:00:10.838Z,8.80
2022-11-27T14:02:58.725Z,8.80
2022-11-27T14:05:48.335Z,8.80
2022-11-27T14:08:36.328Z,8.80
2022-11-27T14:11:45.198Z,8.80
2022-11-27T14:14:33.103Z,8.70
2022-11-27T14:17:26.181Z,8.70
2022-11-27T14:20:21.917Z,8.60
2022-11-27T14:23:13.109Z,8.60
2022-11-27T14:26:10.563Z,8.60
2022-11-27T14:29:01.451Z,8.50
2022-11-27T14:31:58.128Z,8.60
2022-11-27T14:34:47.930Z,8.60
2022-11-27T14:37:35.779Z,8.60
2022-11-27T14:40:27.203Z,8.60
2022-11-27T14:43:19.983Z,8.50
2022-11-27T14:46:13.470Z,8.50
2022-11-27T14:49:01.463Z,8.50
2022-11-27T14:51:50.586Z,8.50
2022-11-27T14:54:39.398Z,8.50
2022-11-27T14:57:32.243Z,8.40
2022-11-27T15:00:20.841Z,8.40
2022-11-27T15:03:09.643Z,8.40
2022-11-27T15:05:59.009Z,8.40
2022-11-27T15:09:02.937Z,8.30
2022-11-27T15:11:56.996Z,8.30
2022-11-27T15:14:52.945Z,8.30
2022-11-27T15:17:41.166Z,8.30
2022-11-27T15:20:33.423Z,8.30
2022-11-27T15:23:24.305Z,8.30
2022-11-27T15:26:16.787Z,8.30
2022-11-27T15:29:25.827Z,8.20
2022-11-27T15:32:23.272Z,8.20
2022-11-27T15:35:14.386Z,8.20
2022-11-27T15:38:09.222Z,8.20
2022-11-27T15:40:58.414Z,8.20
2022-11-27T15:43:46.279Z,8.20
2022-11-27T15:46:35.742Z,8.20
2022-11-27T15:49:28.185Z,8.20
2022-11-27T15:52:16.214Z,8.20
2022-11-27T15:55:04.153Z,8.10
2022-11-27T15:57:52.159Z,8.10
2022-11-27T16:00:40.666Z,8.10
2022-11-27T16:03:29.182Z,8.10
2022-11-27T16:06:20.816Z,8.10
2022-11-27T16:09:08.678Z,8.10
2022-11-27T16:11:57.019Z,8.10
2022-11-27T16:14:44.867Z,8.00
2022-11-27T16:17:32.756Z,8.00
2022-11-27T16:20:20.589Z,8.00
2022-11-27T16:23:09.812Z,8.00
2022-11-27T16:25:57.722Z,8.00
2022-11-27T16:28:45.531Z,8.00
2022-11-27T16:31:33.773Z,8.00
2022-11-27T16:34:21.668Z,7.90
2022-11-27T16:37:14.286Z,8.00
2022-11-27T16:40:07.147Z,8.00
2022-11-27T16:42:55.023Z,7.90
2022-11-27T16:45:42.924Z,7.90
2022-11-27T16:48:31.063Z,7.90
2022-11-27T16:51:20.121Z,7.90
2022-11-27T16:54:09.278Z,7.90
2022-11-27T16:56:59.929Z,7.80
2022-11-27T16:59:50.673Z,7.90
2022-11-27T17:02:38.598Z,7.90
2022-11-27T17:05:26.524Z,7.90
2022-11-27T17:08:14.385Z,7.80
2022-11-27T17:11:08.779Z,7.80
2022-11-27T17:13:59.323Z,7.80
2022-11-27T17:16:50.310Z,7.80
2022-11-27T17:19:38.476Z,7.80
2022-11-27T17:22:26.908Z,7.70
2022-11-27T17:25:14.777Z,7.70
2022-11-27T17:28:02.705Z,7.80
2022-11-27T17:30:52.028Z,7.80
2022-11-27T17:33:39.945Z,7.70
2022-11-27T17:36:33.764Z,7.70
2022-11-27T17:39:23.354Z,7.70
2022-11-27T17:42:13.902Z,7.70
2022-11-27T17:45:04.280Z,7.60
2022-11-27T17:47:53.672Z,7.60
2022-11-27T17:50:41.701Z,7.70
2022-11-27T17:53:29.680Z,7.70
2022-11-27T17:56:18.618Z,7.60
2022-11-27T17:59:06.742Z,7.60
2022-11-27T18:01:55.097Z,7.60
2022-11-27T18:04:45.089Z,7.60
2022-11-27T18:07:33.161Z,7.60
2022-11-27T18:10:21.608Z,7.60
2022-11-27T18:13:09.792Z,7.60
2022-11-27T18:15:57.613Z,7.60
2022-11-27T18:18:45.616Z,7.50
2022-11-27T18:21:34.984Z,7.60
2022-11-27T18:24:24.402Z,7.50
2022-11-27T18:27:15.237Z,7.50
2022-11-27T18:30:04.541Z,7.50
2022-11-27T18:32:52.601Z,7.40
2022-11-27T18:35:41.717Z,7.40
2022-11-27T18:38:32.864Z,7.40
2022-11-27T18:41:21.372Z,7.40
2022-11-27T18:44:09.247Z,7.40
2022-11-27T18:46:57.186Z,7.40
2022-11-27T18:49:45.403Z,7.40
2022-11-27T18:52:34.399Z,7.40
2022-11-27T18:55:23.762Z,7.40
2022-11-27T18:58:12.778Z,7.40
2022-11-27T19:01:01.029Z,7.40
2022-11-27T19:03:49.148Z,7.30
2022-11-27T19:06:37.662Z,7.20
2022-11-27T19:09:25.631Z,7.30
2022-11-27T19:12:15.118Z,7.30
2022-11-27T19:15:02.966Z,7.30
2022-11-27T19:17:50.884Z,7.30
2022-11-27T19:20:39.269Z,7.30
2022-11-27T19:23:27.197Z,7.30
2022-11-27T19:26:17.460Z,7.30
2022-11-27T19:29:08.131Z,7.30
2022-11-27T19:31:58.886Z,7.30
2022-11-27T19:34:46.918Z,7.30
2022-11-27T19:37:37.966Z,7.20
2022-11-27T19:40:26.399Z,7.20
2022-11-27T19:43:14.446Z,7.20
2022-11-27T19:46:05.807Z,7.20
2022-11-27T19:48:55.689Z,7.20
2022-11-27T19:51:43.677Z,7.20
2022-11-27T19:54:31.538Z,7.20
2022-11-27T19:57:19.445Z,7.20
2022-11-27T20:00:08.105Z,7.20
2022-11-27T20:02:57.405Z,7.20
2022-11-27T20:05:46.470Z,7.20
2022-11-27T20:08:34.973Z,7.20
2022-11-27T20:11:31.140Z,7.20
2022-11-27T20:14:21.938Z,7.20
2022-11-27T20:17:10.173Z,7.20
2022-11-27T20:20:00.674Z,7.20
2022-11-27T20:22:50.272Z,7.10
2022-11-27T20:25:39.935Z,7.10
2022-11-27T20:28:27.883Z,7.10
2022-11-27T20:31:17.114Z,7.10
2022-11-27T20:34:06.632Z,7.10
2022-11-27T20:36:55.983Z,7.10
2022-11-27T20:39:44.013Z,7.20
2022-11-27T20:42:32.521Z,7.10
2022-11-27T20:45:20.760Z,7.00
2022-11-27T20:48:09.386Z,7.00
2022-11-27T20:50:59.633Z,6.90
2022-11-27T20:53:49.459Z,6.90
2022-11-27T20:56:37.583Z,6.90
2022-11-27T20:59:25.491Z,7.00
2022-11-27T21:02:14.035Z,6.90
2022-11-27T21:05:02.262Z,6.90
2022-11-27T21:07:50.264Z,6.80
2022-11-27T21:10:39.547Z,6.80
2022-11-27T21:13:27.433Z,6.80
2022-11-27T21:16:15.377Z,6.80
2022-11-27T21:19:04.729Z,6.90
2022-11-27T21:21:53.532Z,6.90
2022-11-27T21:24:41.420Z,6.90
2022-11-27T21:27:30.678Z,6.80
2022-11-27T21:30:19.094Z,6.90
2022-11-27T21:33:06.991Z,6.90
2022-11-27T21:35:55.644Z,6.80
2022-11-27T21:38:43.612Z,6.70
2022-11-27T21:41:32.411Z,6.70
2022-11-27T21:44:22.260Z,6.60
2022-11-27T21:47:11.921Z,6.70
2022-11-27T21:49:59.822Z,6.70
2022-11-27T21:52:47.692Z,6.60
2022-11-27T21:55:39.659Z,6.60
2022-11-27T21:58:31.884Z,6.70
2022-11-27T22:01:22.720Z,6.70
2022-11-27T22:04:10.629Z,6.70
2022-11-27T22:06:58.786Z,6.80
2022-11-27T22:09:46.660Z,6.80
2022-11-27T22:12:34.860Z,6.70
2022-11-27T22:15:22.728Z,6.70
2022-11-27T22:18:12.165Z,6.70
2022-11-27T22:21:03.704Z,6.70
2022-11-27T22:23:51.778Z,6.70
2022-11-27T22:26:40.053Z,6.60
2022-11-27T22:29:27.968Z,6.70
2022-11-27T22:32:15.850Z,6.60
2022-11-27T22:35:05.346Z,6.60
2022-11-27T22:37:53.823Z,6.60
2022-11-27T22:40:43.808Z,6.60
2022-11-27T22:43:31.924Z,6.50
2022-11-27T22:46:20.923Z,6.50
2022-11-27T22:49:09.564Z,6.50
2022-11-27T22:51:58.898Z,6.50
2022-11-27T22:54:46.834Z,6.50
2022-11-27T22:57:34.916Z,6.50
2022-11-27T23:00:23.612Z,6.50
2022-11-27T23:03:11.595Z,6.50
2022-11-27T23:05:59.737Z,6.40
2022-11-27T23:08:49.194Z,6.40
2022-11-27T23:11:37.042Z,6.40
2022-11-27T23:14:25.277Z,6.40
2022-11-27T23:17:13.133Z,6.40
2022-11-27T23:20:01.045Z,6.30
2022-11-27T23:22:52.800Z,6.30
2022-11-27T23:25:42.167Z,6.30
2022-11-27T23:28:30.047Z,6.30
2022-11-27T23:31:34.670Z,6.40
2022-11-27T23:34:22.567Z,6.30
2022-11-27T23:37:10.512Z,6.30
2022-11-27T23:39:58.445Z,6.30
2022-11-27T23:42:47.716Z,6.30
2022-11-27T23:45:35.670Z,6.30
2022-11-27T23:48:26.859Z,6.30
2022-11-27T23:51:16.111Z,6.30
2022-11-27T23:54:07.477Z,6.30
2022-11-27T23:56:56.202Z,6.40
2022-11-27T23:59:45.591Z,6.20
